Terminal Aerodrome Forecast
Issued by NWS Denver/Boulder, CO

Home | Current Version | Previous Version | Text Only | Print | Product List | Glossary On
Versions: 1 2 3 4 5 6 7 8 9 10 11 12 13 14 15 16 17 18 19 20 21 22 23 24 25 26 27 28 29 30 31 32 33 34 35 36 37 38 39 40 41 42 43 44 45 46 47 48 49 50
000
FTUS45 KBOU 300858 AAD
TAFDEN
TAF AMD
KDEN 300858Z 3009/0112 32006KT 2SM -SN BR SCT002 BKN008 OVC012
      TEMPO 3010/3011 3/4SM -SN BR BKN002
     FM301100 32008KT 2SM BR SCT005 BKN012 OVC025
      TEMPO 3011/3015 1/2SM -SN FZFG BKN005
     FM301700 36009KT P6SM VCSH SCT010 OVC025
      TEMPO 3018/3022 2SM -SN BR OVC014
     FM302200 36012G20KT P6SM VCSH SCT010 OVC020
      TEMPO 3022/0102 2SM -SN BR FEW005 OVC010
     FM010600 34008KT 3SM BR SCT004 OVC010=

USA.gov is the U.S. government's official web portal to all federal, state and local government web resources and services.